createdAt,value
2018-12-30T00:01:06.304Z,16.97
2018-12-30T00:03:36.152Z,17.10
2018-12-30T00:06:06.445Z,15.83
2018-12-30T00:08:36.382Z,15.23
2018-12-30T00:11:05.792Z,16.13
2018-12-30T00:13:35.124Z,17.77
2018-12-30T00:16:05.665Z,16.63
2018-12-30T00:18:35.918Z,15.97
2018-12-30T00:21:09.163Z,16.40
2018-12-30T00:23:37.139Z,16.17
2018-12-30T00:26:06.379Z,15.80
2018-12-30T00:28:35.624Z,16.90
2018-12-30T00:31:05.913Z,15.20
2018-12-30T00:33:35.913Z,15.93
2018-12-30T00:36:05.797Z,15.20
2018-12-30T00:38:35.462Z,16.33
2018-12-30T00:41:04.990Z,16.67
2018-12-30T00:43:34.814Z,16.07
2018-12-30T00:46:05.433Z,15.67
2018-12-30T00:48:35.278Z,16.10
2018-12-30T00:51:05.252Z,16.07
2018-12-30T00:53:34.857Z,15.43
2018-12-30T00:56:04.508Z,14.77
2018-12-30T00:58:34.257Z,15.37
2018-12-30T01:01:04.055Z,14.23
2018-12-30T01:03:33.737Z,15.73
2018-12-30T01:06:03.146Z,14.10
2018-12-30T01:08:32.829Z,12.87
2018-12-30T01:11:02.648Z,14.50
2018-12-30T01:13:32.208Z,13.67
2018-12-30T01:16:01.802Z,12.80
2018-12-30T01:18:31.448Z,13.40
2018-12-30T01:21:01.691Z,14.43
2018-12-30T01:23:31.802Z,13.90
2018-12-30T01:26:02.352Z,13.30
2018-12-30T01:28:32.004Z,12.07
2018-12-30T01:31:02.266Z,13.10
2018-12-30T01:33:31.694Z,12.23
2018-12-30T01:36:01.397Z,13.77
2018-12-30T01:38:31.851Z,12.97
2018-12-30T01:41:01.738Z,13.70
2018-12-30T01:43:31.175Z,13.27
2018-12-30T01:46:02.709Z,12.60
2018-12-30T01:48:33.161Z,14.07
2018-12-30T01:51:02.728Z,13.20
2018-12-30T01:53:32.672Z,13.23
2018-12-30T01:56:02.734Z,13.50
2018-12-30T01:58:32.720Z,13.73
2018-12-30T02:01:02.658Z,14.37
2018-12-30T02:03:32.505Z,14.87
2018-12-30T02:06:02.300Z,15.03
2018-12-30T02:08:31.968Z,13.70
2018-12-30T02:11:01.443Z,14.47
2018-12-30T02:13:31.503Z,13.40
2018-12-30T02:16:01.336Z,12.83
2018-12-30T02:18:31.244Z,14.37
2018-12-30T02:21:00.594Z,13.20
2018-12-30T02:23:30.702Z,15.77
2018-12-30T02:26:00.832Z,14.63
2018-12-30T02:28:31.041Z,14.50
2018-12-30T02:31:00.251Z,14.40
2018-12-30T02:33:29.928Z,13.40
2018-12-30T02:35:59.976Z,13.10
2018-12-30T02:38:29.274Z,12.10
2018-12-30T02:40:59.141Z,12.90
2018-12-30T02:43:28.623Z,12.60
2018-12-30T02:45:58.281Z,13.70
2018-12-30T02:48:27.899Z,15.83
2018-12-30T02:50:57.774Z,14.07
2018-12-30T02:53:27.467Z,14.40
2018-12-30T02:55:58.461Z,14.80
2018-12-30T02:58:28.545Z,14.50
2018-12-30T03:00:57.827Z,14.30
2018-12-30T03:03:27.549Z,14.47
2018-12-30T03:05:57.520Z,13.53
2018-12-30T03:08:27.218Z,14.73
2018-12-30T03:10:57.459Z,15.07
2018-12-30T03:13:26.975Z,14.73
2018-12-30T03:15:56.550Z,14.23
2018-12-30T03:18:26.662Z,13.27
2018-12-30T03:20:56.401Z,15.00
2018-12-30T03:23:26.200Z,14.57
2018-12-30T03:25:55.840Z,14.60
2018-12-30T03:28:25.878Z,14.43
2018-12-30T03:30:55.807Z,14.00
2018-12-30T03:33:25.910Z,16.57
2018-12-30T03:35:55.798Z,16.63
2018-12-30T03:38:25.398Z,16.07
2018-12-30T03:40:54.751Z,15.73
2018-12-30T03:43:24.350Z,16.23
2018-12-30T03:45:54.177Z,15.27
2018-12-30T03:48:23.668Z,16.10
2018-12-30T03:50:53.588Z,16.27
2018-12-30T03:53:24.155Z,14.33
2018-12-30T03:55:53.762Z,15.30
2018-12-30T03:58:23.237Z,13.80
2018-12-30T04:00:53.041Z,15.63
2018-12-30T04:03:22.934Z,16.30
2018-12-30T04:05:52.956Z,15.10
2018-12-30T04:08:22.888Z,14.57
2018-12-30T04:10:52.719Z,15.27
2018-12-30T04:13:21.902Z,16.77
2018-12-30T04:15:51.370Z,16.13
2018-12-30T04:18:20.543Z,15.50
2018-12-30T04:20:50.115Z,15.73
2018-12-30T04:23:19.953Z,15.57
2018-12-30T04:25:49.896Z,15.23
2018-12-30T04:28:19.401Z,14.43
2018-12-30T04:30:49.353Z,15.20
2018-12-30T04:33:18.752Z,14.77
2018-12-30T04:35:48.464Z,15.87
2018-12-30T04:38:18.431Z,15.87
2018-12-30T04:40:47.929Z,14.77
2018-12-30T04:43:17.486Z,14.20
2018-12-30T04:45:47.474Z,14.47
2018-12-30T04:48:17.278Z,15.07
2018-12-30T04:50:47.038Z,14.47
2018-12-30T04:53:16.801Z,14.80
2018-12-30T04:55:46.452Z,15.37
2018-12-30T04:58:16.067Z,16.23
2018-12-30T05:00:45.641Z,15.97
2018-12-30T05:03:15.345Z,18.07
2018-12-30T05:05:44.985Z,17.43
2018-12-30T05:08:14.768Z,16.70
2018-12-30T05:10:44.264Z,16.43
2018-12-30T05:13:13.844Z,16.10
2018-12-30T05:15:43.218Z,14.60
2018-12-30T05:18:12.759Z,11.87
2018-12-30T05:20:42.728Z,12.93
2018-12-30T05:23:11.988Z,12.80
2018-12-30T05:25:41.816Z,13.17
2018-12-30T05:28:12.042Z,13.93
2018-12-30T05:30:42.283Z,13.67
2018-12-30T05:33:11.726Z,13.77
2018-12-30T05:35:41.188Z,14.30
2018-12-30T05:38:10.914Z,13.70
2018-12-30T05:40:40.227Z,14.10
2018-12-30T05:43:09.995Z,13.57
2018-12-30T05:45:39.608Z,13.37
2018-12-30T05:48:09.599Z,13.77
2018-12-30T05:50:39.416Z,14.13
2018-12-30T05:53:09.125Z,12.80
2018-12-30T05:55:39.011Z,13.97
2018-12-30T05:58:08.876Z,14.07
2018-12-30T06:00:38.900Z,13.63
2018-12-30T06:03:08.924Z,12.63
2018-12-30T06:05:38.640Z,14.27
2018-12-30T06:08:08.035Z,15.37
2018-12-30T06:10:37.446Z,15.93
2018-12-30T06:13:06.977Z,16.40
2018-12-30T06:15:38.257Z,17.30
2018-12-30T06:18:07.589Z,17.33
2018-12-30T06:20:37.100Z,18.07
2018-12-30T06:23:07.113Z,14.63
2018-12-30T06:25:36.385Z,13.73
2018-12-30T06:28:06.499Z,13.33
2018-12-30T06:30:35.675Z,14.00
2018-12-30T06:33:05.032Z,13.30
2018-12-30T06:35:34.743Z,13.23
2018-12-30T06:38:03.960Z,13.00
2018-12-30T06:40:33.441Z,12.27
2018-12-30T06:43:03.096Z,12.07
2018-12-30T06:45:33.025Z,11.67
2018-12-30T06:48:03.741Z,11.83
2018-12-30T06:50:34.672Z,11.40
2018-12-30T06:53:04.222Z,12.60
2018-12-30T06:55:34.402Z,12.57
2018-12-30T06:58:03.926Z,12.47
2018-12-30T07:00:35.547Z,12.20
2018-12-30T07:03:06.057Z,12.73
2018-12-30T07:05:36.168Z,12.33
2018-12-30T07:08:06.610Z,12.37
2018-12-30T07:10:37.362Z,12.93
2018-12-30T07:13:07.719Z,13.13
2018-12-30T07:15:37.511Z,12.07
2018-12-30T07:18:07.002Z,13.27
2018-12-30T07:20:37.916Z,14.03
2018-12-30T07:23:07.766Z,12.90
2018-12-30T07:25:37.008Z,13.33
2018-12-30T07:28:06.966Z,15.87
2018-12-30T07:30:37.560Z,15.30
2018-12-30T07:33:07.170Z,14.63
2018-12-30T07:35:36.918Z,16.07
2018-12-30T07:38:06.783Z,16.30
2018-12-30T07:40:36.055Z,16.90
2018-12-30T07:43:05.497Z,15.67
2018-12-30T07:45:34.872Z,16.97
2018-12-30T07:48:04.459Z,16.50
2018-12-30T07:50:34.055Z,17.67
2018-12-30T07:53:04.229Z,18.33
2018-12-30T07:55:34.420Z,17.97
2018-12-30T07:58:04.549Z,16.37
2018-12-30T08:00:36.093Z,15.23
2018-12-30T08:03:06.690Z,14.53
2018-12-30T08:05:36.728Z,13.90
2018-12-30T08:08:07.164Z,14.30
2018-12-30T08:10:36.495Z,13.87
2018-12-30T08:13:06.525Z,14.13
2018-12-30T08:15:36.876Z,11.40
2018-12-30T08:18:06.709Z,11.83
2018-12-30T08:20:37.076Z,11.50
2018-12-30T08:23:07.116Z,10.60
2018-12-30T08:25:36.872Z,8.93
2018-12-30T08:28:07.067Z,7.60
2018-12-30T08:30:37.131Z,10.60
2018-12-30T08:33:07.149Z,8.40
2018-12-30T08:35:37.440Z,10.33
2018-12-30T08:38:07.853Z,10.60
2018-12-30T08:40:37.451Z,10.03
2018-12-30T08:43:07.606Z,8.73
2018-12-30T08:45:37.923Z,11.60
2018-12-30T08:48:08.414Z,7.17
2018-12-30T08:50:39.154Z,8.60
2018-12-30T08:53:09.768Z,8.90
2018-12-30T08:55:39.617Z,8.00
2018-12-30T08:58:10.270Z,9.13
2018-12-30T09:00:40.000Z,9.07
2018-12-30T09:03:09.380Z,10.50
2018-12-30T09:05:39.449Z,7.73
2018-12-30T09:08:10.230Z,8.40
2018-12-30T09:10:40.190Z,9.00
2018-12-30T09:13:11.183Z,10.40
2018-12-30T09:15:41.486Z,6.57
2018-12-30T09:18:13.108Z,8.27
2018-12-30T09:20:43.954Z,8.77
2018-12-30T09:23:14.801Z,7.17
2018-12-30T09:25:44.995Z,9.10
2018-12-30T09:28:15.957Z,10.67
2018-12-30T09:30:45.572Z,9.13
2018-12-30T09:33:16.152Z,10.03
2018-12-30T09:35:46.246Z,9.13
2018-12-30T09:38:16.422Z,8.87
2018-12-30T09:40:47.269Z,13.57
2018-12-30T09:43:17.294Z,9.77
2018-12-30T09:45:47.298Z,12.00
2018-12-30T09:48:17.615Z,13.03
2018-12-30T09:50:49.258Z,12.30
2018-12-30T09:53:18.615Z,10.93
2018-12-30T09:55:49.247Z,12.33
2018-12-30T09:58:18.898Z,11.20
2018-12-30T10:00:48.704Z,11.40
2018-12-30T10:03:18.486Z,10.37
2018-12-30T10:05:48.019Z,13.00
2018-12-30T10:08:18.449Z,10.43
2018-12-30T10:10:50.806Z,12.30
2018-12-30T10:13:20.686Z,10.87
2018-12-30T10:15:52.382Z,11.27
2018-12-30T10:18:23.389Z,10.43
2018-12-30T10:20:52.714Z,12.67
2018-12-30T10:23:34.020Z,12.50
2018-12-30T10:26:05.023Z,11.93
2018-12-30T10:28:34.446Z,13.83
2018-12-30T10:31:04.542Z,13.20
2018-12-30T10:33:34.623Z,13.33
2018-12-30T10:36:06.042Z,13.33
2018-12-30T10:38:35.761Z,12.90
2018-12-30T10:41:05.836Z,13.63
2018-12-30T10:43:36.285Z,11.40
2018-12-30T10:46:06.701Z,12.07
2018-12-30T10:48:36.643Z,13.00
2018-12-30T10:51:07.125Z,12.13
2018-12-30T10:53:37.717Z,13.33
2018-12-30T10:56:08.192Z,11.83
2018-12-30T10:58:37.804Z,12.87
2018-12-30T11:01:08.019Z,10.90
2018-12-30T11:03:38.531Z,9.50
2018-12-30T11:06:08.922Z,10.50
2018-12-30T11:08:39.193Z,10.37
2018-12-30T11:11:09.819Z,9.90
2018-12-30T11:13:39.900Z,6.17
2018-12-30T11:16:10.288Z,9.60
2018-12-30T11:18:40.800Z,9.20
2018-12-30T11:21:10.910Z,9.37
2018-12-30T11:23:41.297Z,9.53
2018-12-30T11:26:11.363Z,7.73
2018-12-30T11:28:41.675Z,4.70
2018-12-30T11:31:13.846Z,9.80
2018-12-30T11:33:43.888Z,9.33
2018-12-30T11:36:14.424Z,7.93
2018-12-30T11:38:44.134Z,7.17
2018-12-30T11:41:14.675Z,7.23
2018-12-30T11:43:44.890Z,6.90
2018-12-30T11:46:15.315Z,6.20
2018-12-30T11:48:44.860Z,6.27
2018-12-30T11:51:14.445Z,9.17
2018-12-30T11:53:44.743Z,7.77
2018-12-30T11:56:14.383Z,5.77
2018-12-30T11:58:44.679Z,6.47
2018-12-30T12:01:13.987Z,6.33
2018-12-30T12:03:44.030Z,6.00
2018-12-30T12:06:14.533Z,5.70
2018-12-30T12:08:44.151Z,6.13
2018-12-30T12:11:14.372Z,5.17
2018-12-30T12:13:45.486Z,4.77
2018-12-30T12:16:16.001Z,4.60
2018-12-30T12:18:45.557Z,4.60
2018-12-30T12:21:15.481Z,4.10
2018-12-30T12:23:45.794Z,3.70
2018-12-30T12:26:16.280Z,3.30
2018-12-30T12:29:04.994Z,2.40
2018-12-30T12:31:35.282Z,3.10
2018-12-30T12:34:05.310Z,3.50
2018-12-30T12:36:35.648Z,4.07
2018-12-30T12:39:07.184Z,3.37
2018-12-30T12:41:37.999Z,3.67
2018-12-30T12:44:08.439Z,4.23
2018-12-30T12:46:38.291Z,3.83
2018-12-30T12:49:08.527Z,3.40
2018-12-30T12:51:38.739Z,4.13
2018-12-30T12:54:07.976Z,3.30
2018-12-30T12:56:37.413Z,3.23
2018-12-30T12:59:07.693Z,3.23
2018-12-30T13:01:37.326Z,3.80
2018-12-30T13:04:06.814Z,3.70
2018-12-30T13:06:36.895Z,3.67
2018-12-30T13:09:07.339Z,3.20
2018-12-30T13:11:37.250Z,4.77
2018-12-30T13:14:07.368Z,4.00
2018-12-30T13:16:37.206Z,3.90
2018-12-30T13:19:07.275Z,3.80
2018-12-30T13:21:36.921Z,3.30
2018-12-30T13:24:06.752Z,4.67
2018-12-30T13:26:36.599Z,4.30
2018-12-30T13:29:08.118Z,3.70
2018-12-30T13:31:38.039Z,4.00
2018-12-30T13:34:08.669Z,3.53
2018-12-30T13:37:35.100Z,4.07
2018-12-30T13:40:04.982Z,4.77
2018-12-30T13:42:37.889Z,3.83
2018-12-30T13:45:08.337Z,4.50
2018-12-30T13:47:38.222Z,4.70
2018-12-30T13:50:08.973Z,4.30
2018-12-30T13:52:38.224Z,4.10
2018-12-30T13:55:07.832Z,4.43
2018-12-30T13:57:37.954Z,6.60
2018-12-30T14:00:08.332Z,6.10
2018-12-30T14:02:37.809Z,4.40
2018-12-30T14:05:07.641Z,5.20
2018-12-30T14:07:36.964Z,6.07
2018-12-30T14:10:07.616Z,4.70
2018-12-30T14:12:38.198Z,5.03
2018-12-30T14:15:08.355Z,4.63
2018-12-30T14:17:37.933Z,4.33
2018-12-30T14:20:08.314Z,5.00
2018-12-30T14:22:37.731Z,3.60
2018-12-30T14:25:07.343Z,4.53
2018-12-30T14:27:37.425Z,4.53
2018-12-30T14:30:08.159Z,4.70
2018-12-30T14:32:38.071Z,5.10
2018-12-30T14:35:07.567Z,5.07
2018-12-30T14:37:37.507Z,4.90
2018-12-30T14:40:07.713Z,4.13
2018-12-30T14:42:37.493Z,4.27
2018-12-30T14:45:07.873Z,5.03
2018-12-30T14:47:37.533Z,4.37
2018-12-30T14:50:08.712Z,5.07
2018-12-30T14:52:37.944Z,4.13
2018-12-30T14:55:08.180Z,4.03
2018-12-30T14:57:38.013Z,4.63
2018-12-30T15:00:08.706Z,4.47
2018-12-30T15:02:38.371Z,4.13
2018-12-30T15:05:08.351Z,4.33
2018-12-30T15:07:37.626Z,4.90
2018-12-30T15:10:07.123Z,4.63
2018-12-30T15:13:21.387Z,4.60
2018-12-30T15:15:51.473Z,4.43
2018-12-30T15:18:21.977Z,4.47
2018-12-30T15:20:51.806Z,4.40
2018-12-30T15:23:22.371Z,4.30
2018-12-30T15:25:53.180Z,4.70
2018-12-30T15:28:24.077Z,4.37
2018-12-30T15:30:54.668Z,4.50
2018-12-30T15:33:25.389Z,4.70
2018-12-30T15:35:55.614Z,4.30
2018-12-30T15:38:25.993Z,5.00
2018-12-30T15:40:56.361Z,4.73
2018-12-30T15:43:25.658Z,4.27
2018-12-30T15:45:55.851Z,4.37
2018-12-30T15:48:26.334Z,4.30
2018-12-30T15:50:56.477Z,4.70
2018-12-30T15:53:26.563Z,4.33
2018-12-30T15:55:56.017Z,4.80
2018-12-30T15:58:26.158Z,5.50
2018-12-30T16:00:56.002Z,5.10
2018-12-30T16:03:25.594Z,6.23
2018-12-30T16:05:57.854Z,5.50
2018-12-30T16:08:26.486Z,5.57
2018-12-30T16:10:56.823Z,4.90
2018-12-30T16:13:26.039Z,5.43
2018-12-30T16:15:56.463Z,7.73
2018-12-30T16:18:27.045Z,8.47
2018-12-30T16:20:58.344Z,11.27
2018-12-30T16:23:27.636Z,11.17
2018-12-30T16:25:57.007Z,9.87
2018-12-30T16:28:26.739Z,8.33
2018-12-30T16:30:56.106Z,8.87
2018-12-30T16:33:25.538Z,9.40
2018-12-30T16:35:54.768Z,10.17
2018-12-30T16:38:23.964Z,10.57
2018-12-30T16:40:53.239Z,10.50
2018-12-30T16:43:22.396Z,10.40
2018-12-30T16:45:51.736Z,9.50
2018-12-30T16:48:21.161Z,9.43
2018-12-30T16:50:50.523Z,9.37
2018-12-30T16:53:19.754Z,9.70
2018-12-30T16:55:48.949Z,10.40
2018-12-30T16:58:18.233Z,10.70
2018-12-30T17:00:48.524Z,10.93
2018-12-30T17:03:19.337Z,11.80
2018-12-30T17:05:50.498Z,11.63
2018-12-30T17:08:20.922Z,11.17
2018-12-30T17:10:51.425Z,11.33
2018-12-30T17:13:21.807Z,11.30
2018-12-30T17:15:52.084Z,11.57
2018-12-30T17:18:22.478Z,12.77
2018-12-30T17:20:52.277Z,12.00
2018-12-30T17:23:22.030Z,12.93
2018-12-30T17:25:52.050Z,13.23
2018-12-30T17:28:24.050Z,14.33
2018-12-30T17:30:54.050Z,15.43
2018-12-30T17:33:24.570Z,15.43
2018-12-30T17:35:54.787Z,15.67
2018-12-30T17:38:24.663Z,16.47
2018-12-30T17:41:01.375Z,16.20
2018-12-30T17:43:26.118Z,16.67
2018-12-30T17:45:56.762Z,16.37
2018-12-30T17:48:27.174Z,15.20
2018-12-30T17:50:59.050Z,14.63
2018-12-30T17:53:29.428Z,15.00
2018-12-30T17:55:59.902Z,15.17
2018-12-30T17:58:30.556Z,15.20
2018-12-30T18:01:01.108Z,15.47
2018-12-30T18:03:31.381Z,15.30
2018-12-30T18:06:01.948Z,16.23
2018-12-30T18:08:31.300Z,16.23
2018-12-30T18:11:01.436Z,16.07
2018-12-30T18:13:31.804Z,16.47
2018-12-30T18:16:02.826Z,16.37
2018-12-30T18:18:33.129Z,15.43
2018-12-30T18:21:04.416Z,15.23
2018-12-30T18:23:34.404Z,15.37
2018-12-30T18:26:05.214Z,16.37
2018-12-30T18:28:35.881Z,15.47
2018-12-30T18:31:06.905Z,15.80
2018-12-30T18:33:37.487Z,15.03
2018-12-30T18:36:07.863Z,14.80
2018-12-30T18:38:38.809Z,15.60
2018-12-30T18:41:09.761Z,15.63
2018-12-30T18:43:40.694Z,15.37
2018-12-30T18:46:11.253Z,14.60
2018-12-30T18:48:41.286Z,14.57
2018-12-30T18:51:11.586Z,15.30
2018-12-30T18:53:42.024Z,14.57
2018-12-30T18:56:12.756Z,15.03
2018-12-30T18:58:42.459Z,15.67
2018-12-30T19:01:14.179Z,15.87
2018-12-30T19:03:43.902Z,15.23
2018-12-30T19:06:14.805Z,15.83
2018-12-30T19:08:45.908Z,15.10
2018-12-30T19:11:16.335Z,17.90
2018-12-30T19:13:46.987Z,17.60
2018-12-30T19:16:18.017Z,18.77
2018-12-30T19:18:47.702Z,17.03
2018-12-30T19:21:18.312Z,17.07
2018-12-30T19:23:49.203Z,17.30
2018-12-30T19:26:19.131Z,18.20
2018-12-30T19:28:49.603Z,17.17
2018-12-30T19:31:19.779Z,18.50
2018-12-30T19:33:51.360Z,16.70
2018-12-30T19:36:21.402Z,16.37
2018-12-30T19:38:51.396Z,17.03
2018-12-30T19:41:21.998Z,18.47
2018-12-30T19:43:52.327Z,20.80
2018-12-30T19:46:23.061Z,22.60
2018-12-30T19:48:53.073Z,23.47
2018-12-30T19:51:23.562Z,23.57
2018-12-30T19:53:54.177Z,26.10
2018-12-30T19:56:24.507Z,26.07
2018-12-30T19:58:54.990Z,25.83
2018-12-30T20:01:25.555Z,23.93
2018-12-30T20:03:56.655Z,23.63
2018-12-30T20:06:27.105Z,23.50
2018-12-30T20:08:57.413Z,23.27
2018-12-30T20:11:27.831Z,21.37
2018-12-30T20:13:58.145Z,21.27
2018-12-30T20:16:29.057Z,20.57
2018-12-30T20:18:58.911Z,19.93
2018-12-30T20:21:29.096Z,20.77
2018-12-30T20:23:59.770Z,22.07
2018-12-30T20:26:30.431Z,20.60
2018-12-30T20:29:01.026Z,20.20
2018-12-30T20:31:32.113Z,20.33
2018-12-30T20:34:02.527Z,20.83
2018-12-30T20:36:32.713Z,22.73
2018-12-30T20:39:03.662Z,20.87
2018-12-30T20:41:36.657Z,22.53
2018-12-30T20:44:06.480Z,22.23
2018-12-30T20:46:36.601Z,22.40
2018-12-30T20:49:09.044Z,21.93
2018-12-30T20:51:39.828Z,21.10
2018-12-30T20:54:09.979Z,23.50
2018-12-30T20:56:39.894Z,22.60
2018-12-30T20:59:13.092Z,22.43
2018-12-30T21:01:43.513Z,22.53
2018-12-30T21:04:13.878Z,22.53
2018-12-30T21:06:43.287Z,23.67
2018-12-30T21:09:13.852Z,21.40
2018-12-30T21:11:44.248Z,20.27
2018-12-30T21:14:15.429Z,21.77
2018-12-30T21:16:47.887Z,21.10
2018-12-30T21:19:18.251Z,20.30
2018-12-30T21:21:48.073Z,21.50
2018-12-30T21:24:17.893Z,20.00
2018-12-30T21:26:47.598Z,21.00
2018-12-30T21:29:17.276Z,20.07
2018-12-30T21:31:47.369Z,21.03
2018-12-30T21:34:17.613Z,21.70
2018-12-30T21:36:47.267Z,21.40
2018-12-30T21:39:16.916Z,20.57
2018-12-30T21:41:46.659Z,20.07
2018-12-30T21:44:16.237Z,20.73
2018-12-30T21:46:46.296Z,20.07
2018-12-30T21:49:15.998Z,19.37
2018-12-30T21:51:45.245Z,19.43
2018-12-30T21:54:15.482Z,19.77
2018-12-30T21:56:45.354Z,19.30
2018-12-30T21:59:15.327Z,17.63
2018-12-30T22:01:45.878Z,19.03
2018-12-30T22:04:16.037Z,17.23
2018-12-30T22:06:45.498Z,18.30
2018-12-30T22:09:15.686Z,19.37
2018-12-30T22:11:46.430Z,18.93
2018-12-30T22:14:16.937Z,19.17
2018-12-30T22:16:47.217Z,19.87
2018-12-30T22:19:17.484Z,21.20
2018-12-30T22:21:48.072Z,22.67
2018-12-30T22:24:18.333Z,21.63
2018-12-30T22:26:48.762Z,21.77
2018-12-30T22:29:21.301Z,22.37
2018-12-30T22:31:51.136Z,23.23
2018-12-30T22:34:20.717Z,23.80
2018-12-30T22:36:51.276Z,25.03
2018-12-30T22:39:22.209Z,25.07
2018-12-30T22:41:52.362Z,25.80
2018-12-30T22:44:22.706Z,25.73
2018-12-30T22:46:53.377Z,26.13
2018-12-30T22:49:23.730Z,25.87
2018-12-30T22:51:53.940Z,26.07
2018-12-30T22:54:24.392Z,26.00
2018-12-30T22:56:53.742Z,26.33
2018-12-30T22:59:23.381Z,24.80
2018-12-30T23:01:54.702Z,25.60
2018-12-30T23:04:24.988Z,25.87
2018-12-30T23:06:58.608Z,25.43
2018-12-30T23:09:29.164Z,25.50
2018-12-30T23:11:59.267Z,24.77
2018-12-30T23:14:29.207Z,24.60
2018-12-30T23:16:59.451Z,23.27
2018-12-30T23:19:29.930Z,24.57
2018-12-30T23:22:00.804Z,25.07
2018-12-30T23:24:31.311Z,23.37
2018-12-30T23:27:01.590Z,24.23
2018-12-30T23:29:31.861Z,23.37
2018-12-30T23:32:02.482Z,23.57
2018-12-30T23:34:33.176Z,25.13
2018-12-30T23:37:03.936Z,24.40
2018-12-30T23:39:34.633Z,25.03
2018-12-30T23:42:05.083Z,24.37
2018-12-30T23:44:35.706Z,24.53
2018-12-30T23:47:05.783Z,25.93
2018-12-30T23:49:35.628Z,23.00
2018-12-30T23:52:05.965Z,21.80
2018-12-30T23:54:36.066Z,24.27
2018-12-30T23:57:05.883Z,22.97
2018-12-30T23:59:37.136Z,21.07
